createdAt,value
2022-09-20T00:01:32.976Z,7.33
2022-09-20T00:04:01.472Z,7.67
2022-09-20T00:06:29.933Z,6.00
2022-09-20T00:08:57.246Z,7.67
2022-09-20T00:11:25.798Z,6.33
2022-09-20T00:13:55.011Z,6.00
2022-09-20T00:16:40.640Z,4.33
2022-09-20T00:19:08.121Z,5.67
2022-09-20T00:21:36.633Z,7.00
2022-09-20T00:24:03.897Z,6.00
2022-09-20T00:26:30.906Z,6.67
2022-09-20T00:28:57.934Z,5.67
2022-09-20T00:31:24.985Z,6.33
2022-09-20T00:34:13.612Z,7.00
2022-09-20T00:36:40.541Z,5.33
2022-09-20T00:39:07.516Z,9.00
2022-09-20T00:41:34.453Z,4.67
2022-09-20T00:44:02.070Z,5.33
2022-09-20T00:46:30.303Z,7.00
2022-09-20T00:49:01.253Z,5.67
2022-09-20T00:51:33.074Z,6.00
2022-09-20T00:54:00.820Z,6.00
2022-09-20T00:56:30.187Z,5.67
2022-09-20T00:59:17.979Z,5.33
2022-09-20T01:01:46.925Z,4.67
2022-09-20T01:04:14.679Z,5.00
2022-09-20T01:06:42.293Z,5.67
2022-09-20T01:09:24.103Z,4.67
2022-09-20T01:12:13.927Z,5.33
2022-09-20T01:14:59.868Z,7.00
2022-09-20T01:17:46.571Z,8.00
2022-09-20T01:20:36.709Z,7.00
2022-09-20T01:23:51.479Z,7.33
2022-09-20T01:26:23.113Z,6.33
2022-09-20T01:28:50.444Z,4.67
2022-09-20T01:31:34.324Z,6.00
2022-09-20T01:34:01.975Z,4.67
2022-09-20T01:36:39.929Z,5.33
2022-09-20T01:39:19.515Z,4.00
2022-09-20T01:42:08.072Z,5.00
2022-09-20T01:44:46.878Z,5.00
2022-09-20T01:47:36.373Z,4.67
2022-09-20T01:50:30.489Z,6.33
2022-09-20T01:53:19.039Z,5.00
2022-09-20T01:56:03.002Z,5.00
2022-09-20T01:59:25.103Z,5.00
2022-09-20T02:01:54.855Z,4.67
2022-09-20T02:04:40.703Z,5.00
2022-09-20T02:07:26.056Z,4.67
2022-09-20T02:10:16.035Z,5.00
2022-09-20T02:13:05.220Z,5.67
2022-09-20T02:15:47.074Z,4.00
2022-09-20T02:18:31.671Z,6.00
2022-09-20T02:21:05.876Z,6.00
2022-09-20T02:23:41.534Z,5.00
2022-09-20T02:26:14.261Z,8.00
2022-09-20T02:29:13.363Z,4.00
2022-09-20T02:32:00.805Z,5.00
2022-09-20T02:34:44.181Z,4.00
2022-09-20T02:37:25.905Z,4.67
2022-09-20T02:39:58.789Z,4.00
2022-09-20T02:42:30.220Z,3.00
2022-09-20T02:45:34.617Z,4.00
2022-09-20T02:48:04.487Z,3.00
2022-09-20T02:50:49.888Z,5.00
2022-09-20T02:53:37.384Z,3.33
2022-09-20T02:56:13.628Z,3.00
2022-09-20T02:59:19.180Z,4.00
2022-09-20T03:02:04.705Z,3.00
2022-09-20T03:04:44.436Z,4.00
2022-09-20T03:07:31.462Z,5.00
2022-09-20T03:10:20.856Z,4.00
2022-09-20T03:13:02.264Z,4.00
2022-09-20T03:15:32.250Z,2.67
2022-09-20T03:18:17.467Z,3.67
2022-09-20T03:20:48.576Z,4.67
2022-09-20T03:23:49.617Z,3.00
2022-09-20T03:26:41.252Z,5.00
2022-09-20T03:29:38.672Z,3.33
2022-09-20T03:32:44.011Z,5.00
2022-09-20T03:35:28.431Z,2.00
2022-09-20T03:38:02.352Z,3.67
2022-09-20T03:40:40.729Z,5.00
2022-09-20T03:43:47.376Z,5.00
2022-09-20T03:46:21.393Z,1.67
2022-09-20T03:49:03.301Z,3.33
2022-09-20T03:51:33.959Z,4.67
2022-09-20T03:54:39.657Z,5.33
2022-09-20T03:57:34.842Z,4.00
2022-09-20T04:00:09.391Z,3.00
2022-09-20T04:03:10.203Z,3.33
2022-09-20T04:05:37.109Z,5.00
2022-09-20T04:08:14.356Z,2.00
2022-09-20T04:10:53.378Z,5.00
2022-09-20T04:13:32.388Z,4.00
2022-09-20T04:16:11.023Z,5.67
2022-09-20T04:18:58.903Z,5.00
2022-09-20T04:21:36.389Z,3.67
2022-09-20T04:24:03.261Z,4.33
2022-09-20T04:26:31.939Z,5.67
2022-09-20T04:29:32.147Z,3.00
2022-09-20T04:32:04.088Z,4.33
2022-09-20T04:34:54.653Z,4.00
2022-09-20T04:37:35.562Z,4.00
2022-09-20T04:40:16.828Z,4.00
2022-09-20T04:43:08.277Z,5.00
2022-09-20T04:45:55.178Z,4.00
2022-09-20T04:49:06.611Z,4.00
2022-09-20T04:52:07.629Z,4.00
2022-09-20T04:54:58.927Z,3.00
2022-09-20T04:57:54.861Z,5.00
2022-09-20T05:00:24.971Z,3.00
2022-09-20T05:03:12.742Z,4.67
2022-09-20T05:05:42.498Z,4.00
2022-09-20T05:08:27.907Z,4.00
2022-09-20T05:11:02.181Z,3.67
2022-09-20T05:13:38.179Z,3.00
2022-09-20T05:16:08.851Z,3.00
2022-09-20T05:18:51.623Z,6.33
2022-09-20T05:21:18.555Z,3.00
2022-09-20T05:24:23.894Z,3.33
2022-09-20T05:27:22.533Z,4.67
2022-09-20T05:30:06.825Z,3.00
2022-09-20T05:33:13.053Z,3.00
2022-09-20T05:35:43.543Z,3.00
2022-09-20T05:38:31.084Z,4.00
2022-09-20T05:41:34.973Z,4.00
2022-09-20T05:44:04.905Z,4.00
2022-09-20T05:46:53.916Z,3.00
2022-09-20T05:49:35.774Z,3.67
2022-09-20T05:52:40.333Z,5.67
2022-09-20T05:55:07.177Z,7.00
2022-09-20T05:57:34.303Z,2.00
2022-09-20T06:00:13.718Z,3.00
2022-09-20T06:03:01.675Z,4.33
2022-09-20T06:05:46.512Z,3.00
2022-09-20T06:08:25.454Z,2.00
2022-09-20T06:11:00.819Z,3.00
2022-09-20T06:13:45.900Z,3.00
2022-09-20T06:16:18.140Z,3.33
2022-09-20T06:19:11.295Z,4.00
2022-09-20T06:21:53.262Z,3.00
2022-09-20T06:25:01.239Z,3.00
2022-09-20T06:27:34.371Z,4.00
2022-09-20T06:30:05.995Z,5.67
2022-09-20T06:32:34.986Z,2.67
2022-09-20T06:35:02.776Z,3.00
2022-09-20T06:38:10.838Z,4.00
2022-09-20T06:41:05.091Z,3.00
2022-09-20T06:43:32.032Z,3.00
2022-09-20T06:45:59.191Z,4.67
2022-09-20T06:48:26.193Z,2.00
2022-09-20T06:50:53.171Z,2.00
2022-09-20T06:53:31.422Z,3.33
2022-09-20T06:55:58.536Z,2.00
2022-09-20T06:58:25.555Z,2.00
2022-09-20T07:00:53.687Z,3.00
2022-09-20T07:03:20.628Z,3.00
2022-09-20T07:05:47.646Z,4.00
2022-09-20T07:08:14.620Z,2.00
2022-09-20T07:10:41.770Z,4.00
2022-09-20T07:13:11.412Z,3.00
2022-09-20T07:15:38.426Z,4.33
2022-09-20T07:18:05.566Z,4.00
2022-09-20T07:20:32.532Z,3.00
2022-09-20T07:22:59.652Z,2.33
2022-09-20T07:25:26.707Z,3.00
2022-09-20T07:27:53.781Z,3.00
2022-09-20T07:30:20.845Z,3.67
2022-09-20T07:32:47.798Z,3.00
2022-09-20T07:35:15.585Z,2.00
2022-09-20T07:37:42.811Z,3.67
2022-09-20T07:40:11.114Z,3.00
2022-09-20T07:42:38.203Z,3.33
2022-09-20T07:45:05.704Z,2.00
2022-09-20T07:47:35.712Z,4.00
2022-09-20T07:50:03.583Z,3.00
2022-09-20T07:52:30.615Z,4.67
2022-09-20T07:54:57.845Z,3.67
2022-09-20T07:57:24.774Z,3.00
2022-09-20T07:59:51.875Z,2.00
2022-09-20T08:02:18.923Z,2.00
2022-09-20T08:04:45.975Z,2.00
2022-09-20T08:07:12.992Z,4.33
2022-09-20T08:09:39.992Z,2.00
2022-09-20T08:14:55.951Z,2.33
2022-09-20T08:17:22.981Z,1.67
2022-09-20T08:19:50.902Z,3.33
2022-09-20T08:22:17.973Z,2.00
2022-09-20T08:24:44.987Z,2.00
2022-09-20T08:27:12.074Z,2.33
2022-09-20T08:29:39.129Z,2.00
2022-09-20T08:32:06.275Z,3.00
2022-09-20T08:34:33.296Z,3.33
2022-09-20T08:37:00.263Z,2.33
2022-09-20T08:42:23.607Z,2.00
2022-09-20T08:45:01.168Z,3.00
2022-09-20T08:47:58.475Z,3.00
2022-09-20T08:50:26.018Z,3.00
2022-09-20T08:53:00.094Z,2.67
2022-09-20T08:55:36.401Z,3.00
2022-09-20T08:58:08.150Z,2.67
2022-09-20T09:00:36.580Z,3.00
2022-09-20T09:03:13.463Z,3.00
2022-09-20T09:05:50.881Z,4.00
2022-09-20T09:08:19.633Z,3.33
2022-09-20T09:10:55.033Z,2.00
2022-09-20T09:13:46.147Z,2.33
2022-09-20T09:16:21.989Z,3.00
2022-09-20T09:18:51.938Z,3.00
2022-09-20T09:21:26.326Z,2.00
2022-09-20T09:24:19.373Z,4.00
2022-09-20T09:26:46.875Z,3.00
2022-09-20T09:29:23.641Z,2.00
2022-09-20T09:31:52.179Z,2.33
2022-09-20T09:34:29.762Z,2.67
2022-09-20T09:36:57.256Z,2.00
2022-09-20T09:39:28.071Z,2.33
2022-09-20T09:41:55.273Z,2.33
2022-09-20T09:44:27.957Z,2.00
2022-09-20T09:46:55.733Z,2.67
2022-09-20T09:49:23.407Z,2.67
2022-09-20T09:52:13.394Z,3.67
2022-09-20T09:55:04.160Z,2.33
2022-09-20T09:58:00.005Z,3.00
2022-09-20T10:00:27.524Z,2.33
2022-09-20T10:03:17.785Z,2.00
2022-09-20T10:05:59.703Z,2.67
2022-09-20T10:08:36.012Z,2.33
2022-09-20T10:11:21.011Z,2.67
2022-09-20T10:13:57.955Z,3.00
2022-09-20T10:16:57.166Z,1.67
2022-09-20T10:19:42.912Z,2.00
2022-09-20T10:23:06.644Z,2.00
2022-09-20T10:26:05.048Z,3.00
2022-09-20T10:28:53.310Z,5.00
2022-09-20T10:31:46.360Z,1.67
2022-09-20T10:34:54.641Z,2.00
2022-09-20T10:37:38.240Z,2.00
2022-09-20T10:40:17.193Z,2.00
2022-09-20T10:43:09.111Z,3.33
2022-09-20T10:46:14.407Z,3.00
2022-09-20T10:48:33.011Z,2.00
2022-09-20T10:51:00.992Z,2.00
2022-09-20T10:53:52.750Z,2.00
2022-09-20T10:56:31.470Z,2.00
2022-09-20T10:59:32.793Z,3.00
2022-09-20T11:02:24.705Z,3.00
2022-09-20T11:05:26.475Z,2.67
2022-09-20T11:08:03.565Z,3.00
2022-09-20T11:10:36.442Z,3.67
2022-09-20T11:13:10.937Z,2.33
2022-09-20T11:15:42.011Z,2.67
2022-09-20T11:18:14.785Z,2.00
2022-09-20T11:20:49.844Z,4.33
2022-09-20T11:23:25.563Z,2.00
2022-09-20T11:25:57.214Z,2.67
2022-09-20T11:28:31.157Z,3.00
2022-09-20T11:31:22.572Z,2.33
2022-09-20T11:33:52.523Z,2.00
2022-09-20T11:36:34.500Z,2.00
2022-09-20T11:39:07.665Z,3.00
2022-09-20T11:41:34.650Z,2.00
2022-09-20T11:44:04.862Z,1.33
2022-09-20T11:46:38.869Z,2.00
2022-09-20T11:49:16.012Z,1.00
2022-09-20T11:52:00.864Z,3.00
2022-09-20T11:54:42.965Z,3.00
2022-09-20T11:57:14.066Z,2.33
2022-09-20T11:59:42.387Z,2.00
2022-09-20T12:02:33.701Z,1.67
2022-09-20T12:05:02.203Z,1.67
2022-09-20T12:07:38.314Z,2.00
2022-09-20T12:10:22.264Z,1.67
2022-09-20T12:12:51.412Z,2.00
2022-09-20T12:15:35.057Z,2.00
2022-09-20T12:18:12.648Z,2.67
2022-09-20T12:20:39.517Z,1.00
2022-09-20T12:23:41.195Z,2.33
2022-09-20T12:26:23.224Z,1.67
2022-09-20T12:28:54.112Z,2.00
2022-09-20T12:31:29.434Z,2.00
2022-09-20T12:34:11.829Z,1.33
2022-09-20T12:36:45.039Z,1.67
2022-09-20T12:39:12.005Z,2.00
2022-09-20T12:41:47.743Z,2.33
2022-09-20T12:44:35.033Z,2.00
2022-09-20T12:47:26.468Z,2.00
2022-09-20T12:50:15.829Z,2.00
2022-09-20T12:52:57.412Z,0.67
2022-09-20T12:55:27.415Z,1.33
2022-09-20T12:58:02.829Z,2.00
2022-09-20T13:01:14.641Z,1.00
2022-09-20T13:03:45.158Z,1.00
2022-09-20T13:06:16.681Z,2.00
2022-09-20T13:08:49.987Z,1.33
2022-09-20T13:11:42.649Z,1.67
2022-09-20T13:14:25.330Z,2.00
2022-09-20T13:16:56.757Z,1.00
2022-09-20T13:19:34.948Z,2.00
2022-09-20T13:22:07.247Z,2.00
2022-09-20T13:24:42.213Z,0.67
2022-09-20T13:27:19.289Z,1.00
2022-09-20T13:29:46.648Z,1.00
2022-09-20T13:32:17.986Z,2.00
2022-09-20T13:34:46.014Z,1.00
2022-09-20T13:37:21.942Z,1.00
2022-09-20T13:39:49.187Z,2.00
2022-09-20T13:42:19.584Z,3.00
2022-09-20T13:44:47.529Z,1.00
2022-09-20T13:47:28.496Z,2.00
2022-09-20T13:50:17.759Z,2.67
2022-09-20T13:52:52.780Z,1.00
2022-09-20T13:55:34.595Z,1.00
2022-09-20T13:58:03.382Z,1.00
2022-09-20T14:00:30.826Z,1.00
2022-09-20T14:02:57.926Z,1.33
2022-09-20T14:05:27.074Z,0.67
2022-09-20T14:07:54.136Z,1.00
2022-09-20T14:10:37.263Z,1.00
2022-09-20T14:13:07.148Z,1.33
2022-09-20T14:15:37.191Z,2.00
2022-09-20T14:18:07.071Z,1.00
2022-09-20T14:20:34.338Z,2.00
2022-09-20T14:23:01.576Z,2.00
2022-09-20T14:25:28.756Z,2.00
2022-09-20T14:28:06.750Z,1.00
2022-09-20T14:30:36.567Z,1.00
2022-09-20T14:33:05.002Z,1.33
2022-09-20T14:35:31.976Z,1.00
2022-09-20T14:38:08.872Z,1.00
2022-09-20T14:40:47.363Z,2.00
2022-09-20T14:43:34.064Z,1.00
2022-09-20T14:46:17.355Z,0.33
2022-09-20T14:48:45.671Z,1.67
2022-09-20T14:51:19.134Z,1.00
2022-09-20T14:53:47.030Z,0.00
2022-09-20T14:56:15.363Z,1.00
2022-09-20T14:59:05.707Z,1.00
2022-09-20T15:01:33.439Z,1.00
2022-09-20T15:04:06.397Z,1.00
2022-09-20T15:06:36.230Z,2.00
2022-09-20T15:09:04.544Z,1.67
2022-09-20T15:11:31.733Z,1.00
2022-09-20T15:13:58.634Z,1.00
2022-09-20T15:16:25.626Z,2.00
2022-09-20T15:18:52.623Z,0.67
2022-09-20T15:21:19.600Z,0.00
2022-09-20T15:23:46.522Z,1.00
2022-09-20T15:26:14.385Z,1.00
2022-09-20T15:28:41.478Z,1.00
2022-09-20T15:31:09.747Z,1.67
2022-09-20T15:33:36.736Z,1.00
2022-09-20T15:36:04.047Z,1.00
2022-09-20T15:38:31.070Z,1.00
2022-09-20T15:41:06.141Z,1.00
2022-09-20T15:43:33.153Z,1.33
2022-09-20T15:46:23.449Z,1.00
2022-09-20T15:48:50.545Z,1.00
2022-09-20T15:51:17.638Z,0.67
2022-09-20T15:53:46.227Z,1.00
2022-09-20T15:56:27.666Z,1.00
2022-09-20T15:59:02.119Z,1.00
2022-09-20T16:01:32.601Z,1.00
2022-09-20T16:04:00.038Z,1.00
2022-09-20T16:06:27.034Z,1.00
2022-09-20T16:08:54.021Z,1.00
2022-09-20T16:11:22.949Z,1.00
2022-09-20T16:13:56.162Z,1.00
2022-09-20T16:16:23.457Z,1.00
2022-09-20T16:19:09.009Z,1.67
2022-09-20T16:21:37.556Z,1.00
2022-09-20T16:24:05.930Z,1.00
2022-09-20T16:26:33.400Z,0.67
2022-09-20T16:29:00.710Z,1.00
2022-09-20T16:31:48.031Z,1.00
2022-09-20T16:34:17.321Z,1.00
2022-09-20T16:36:44.645Z,1.00
2022-09-20T16:39:12.255Z,1.00
2022-09-20T16:41:42.265Z,1.00
2022-09-20T16:44:09.454Z,3.00
2022-09-20T16:46:39.504Z,2.00
2022-09-20T16:49:07.641Z,2.00
2022-09-20T16:51:36.599Z,1.00
2022-09-20T16:54:04.959Z,2.00
2022-09-20T16:56:34.279Z,2.00
2022-09-20T17:00:15.866Z,1.00
2022-09-20T17:02:47.747Z,1.33
2022-09-20T17:05:15.586Z,1.33
2022-09-20T17:07:44.129Z,1.33
2022-09-20T17:10:11.574Z,1.00
2022-09-20T17:12:42.742Z,1.67
2022-09-20T17:15:13.303Z,3.00
2022-09-20T17:17:40.357Z,2.00
2022-09-20T17:20:08.039Z,2.00
2022-09-20T17:22:35.573Z,1.00
2022-09-20T17:25:02.704Z,3.00
2022-09-20T17:27:29.725Z,1.33
2022-09-20T17:29:56.741Z,2.00
2022-09-20T17:32:24.267Z,1.33
2022-09-20T17:34:51.282Z,1.00
2022-09-20T17:37:18.560Z,1.00
2022-09-20T17:39:45.817Z,2.00
2022-09-20T17:42:12.838Z,2.00
2022-09-20T17:44:39.859Z,1.00
2022-09-20T17:47:07.339Z,1.00
2022-09-20T17:49:34.939Z,2.00
2022-09-20T17:52:02.293Z,1.00
2022-09-20T17:54:29.330Z,2.00
2022-09-20T17:56:56.496Z,2.00
2022-09-20T17:59:23.576Z,2.67
2022-09-20T18:01:52.146Z,2.00
2022-09-20T18:04:21.105Z,2.00
2022-09-20T18:06:49.261Z,2.33
2022-09-20T18:09:17.692Z,3.00
2022-09-20T18:11:49.599Z,6.67
2022-09-20T18:14:21.290Z,6.00
2022-09-20T18:16:48.223Z,6.00
2022-09-20T18:19:16.406Z,6.33
2022-09-20T18:21:43.485Z,8.00
2022-09-20T18:24:10.947Z,7.00
2022-09-20T18:26:38.358Z,7.33
2022-09-20T18:29:06.898Z,11.00
2022-09-20T18:31:38.375Z,9.33
2022-09-20T18:34:06.909Z,7.67
2022-09-20T18:36:36.904Z,8.00
2022-09-20T18:39:04.093Z,9.00
2022-09-20T18:41:34.573Z,7.33
2022-09-20T18:44:04.274Z,6.67
2022-09-20T18:46:31.617Z,9.00
2022-09-20T18:49:05.240Z,8.67
2022-09-20T18:51:37.146Z,8.00
2022-09-20T18:54:06.541Z,7.33
2022-09-20T18:56:37.511Z,8.00
2022-09-20T18:59:06.888Z,9.33
2022-09-20T19:01:55.712Z,6.67
2022-09-20T19:04:25.669Z,7.00
2022-09-20T19:07:11.091Z,8.33
2022-09-20T19:09:54.812Z,8.00
2022-09-20T19:12:43.473Z,7.00
2022-09-20T19:15:16.329Z,7.00
2022-09-20T19:17:58.156Z,8.00
2022-09-20T19:20:35.417Z,8.00
2022-09-20T19:23:37.890Z,8.33
2022-09-20T19:26:22.342Z,7.00
2022-09-20T19:28:50.521Z,6.00
2022-09-20T19:31:30.948Z,7.67
2022-09-20T19:33:59.568Z,7.67
2022-09-20T19:36:40.288Z,7.00
2022-09-20T19:39:27.928Z,6.67
2022-09-20T19:42:16.689Z,7.00
2022-09-20T19:44:54.592Z,4.67
2022-09-20T19:47:52.355Z,6.33
2022-09-20T19:50:28.064Z,7.33
2022-09-20T19:52:58.526Z,7.33
2022-09-20T19:55:25.854Z,5.00
2022-09-20T19:57:53.553Z,7.00
2022-09-20T20:00:21.220Z,6.67
2022-09-20T20:02:48.582Z,6.00
2022-09-20T20:05:20.264Z,6.00
2022-09-20T20:07:55.879Z,5.00
2022-09-20T20:10:31.620Z,6.00
2022-09-20T20:13:32.016Z,7.67
2022-09-20T20:16:03.333Z,8.33
2022-09-20T20:18:42.643Z,5.67
2022-09-20T20:21:36.802Z,4.00
2022-09-20T20:24:07.808Z,6.00
2022-09-20T20:26:35.398Z,4.00
2022-09-20T20:29:02.423Z,6.00
2022-09-20T20:31:30.475Z,5.00
2022-09-20T20:33:57.534Z,6.00
2022-09-20T20:36:24.611Z,6.00
2022-09-20T20:38:53.319Z,6.00
2022-09-20T20:41:21.948Z,4.67
2022-09-20T20:43:50.225Z,5.00
2022-09-20T20:46:20.767Z,7.67
2022-09-20T20:48:48.084Z,4.33
2022-09-20T20:51:19.365Z,4.67
2022-09-20T20:53:51.334Z,5.00
2022-09-20T20:56:26.505Z,5.00
2022-09-20T20:58:53.864Z,5.67
2022-09-20T21:01:25.884Z,5.00
2022-09-20T21:03:53.725Z,7.00
2022-09-20T21:06:21.583Z,4.00
2022-09-20T21:08:49.750Z,5.00
2022-09-20T21:11:23.635Z,5.00
2022-09-20T21:13:51.565Z,5.00
2022-09-20T21:16:23.282Z,4.00
2022-09-20T21:18:50.539Z,4.00
2022-09-20T21:21:20.903Z,4.00
2022-09-20T21:23:49.777Z,7.00
2022-09-20T21:26:16.756Z,8.00
2022-09-20T21:28:51.680Z,6.00
2022-09-20T21:31:19.198Z,6.00
2022-09-20T21:33:46.239Z,6.00
2022-09-20T21:36:17.442Z,4.00
2022-09-20T21:38:44.826Z,4.33
2022-09-20T21:41:18.727Z,4.00
2022-09-20T21:43:46.627Z,5.00
2022-09-20T21:46:17.935Z,4.00
2022-09-20T21:48:45.785Z,5.00
2022-09-20T21:51:14.247Z,4.67
2022-09-20T21:53:41.254Z,5.00
2022-09-20T21:56:18.704Z,5.00
2022-09-20T21:58:48.680Z,5.67
2022-09-20T22:01:20.184Z,5.00
2022-09-20T22:04:01.136Z,5.00
2022-09-20T22:06:32.868Z,5.00
2022-09-20T22:09:04.442Z,4.00
2022-09-20T22:11:33.480Z,5.00
2022-09-20T22:14:00.565Z,6.00
2022-09-20T22:16:29.116Z,4.33
2022-09-20T22:18:56.315Z,4.33
2022-09-20T22:21:29.758Z,5.00
2022-09-20T22:24:03.780Z,3.00
2022-09-20T22:26:40.913Z,3.00
2022-09-20T22:29:08.027Z,3.33
2022-09-20T22:31:36.687Z,3.00
2022-09-20T22:34:05.505Z,3.00
2022-09-20T22:36:34.421Z,4.33
2022-09-20T22:39:01.711Z,4.67
2022-09-20T22:41:28.736Z,3.33
2022-09-20T22:43:56.092Z,4.00
2022-09-20T22:46:27.071Z,2.67
2022-09-20T22:48:54.059Z,4.00
2022-09-20T22:51:22.878Z,4.33
2022-09-20T22:53:50.007Z,4.00
2022-09-20T22:56:22.098Z,4.00
2022-09-20T22:58:51.088Z,3.00
2022-09-20T23:01:28.082Z,4.00
2022-09-20T23:04:06.282Z,3.00
2022-09-20T23:06:34.156Z,1.67
2022-09-20T23:09:02.373Z,3.00
2022-09-20T23:11:29.644Z,3.00
2022-09-20T23:13:58.278Z,3.00
2022-09-20T23:16:29.547Z,4.00
2022-09-20T23:18:58.559Z,3.33
2022-09-20T23:21:25.662Z,3.33
2022-09-20T23:23:57.304Z,5.33
2022-09-20T23:26:25.615Z,3.33
2022-09-20T23:28:54.619Z,3.33
2022-09-20T23:31:21.550Z,5.00
2022-09-20T23:33:55.484Z,3.00
2022-09-20T23:36:22.583Z,3.00
2022-09-20T23:38:49.616Z,3.00
2022-09-20T23:41:18.505Z,3.00
2022-09-20T23:43:45.651Z,3.67
2022-09-20T23:46:13.140Z,3.00
2022-09-20T23:48:43.237Z,3.33
2022-09-20T23:51:12.966Z,3.00
2022-09-20T23:53:39.992Z,5.00
2022-09-20T23:56:07.472Z,3.00
2022-09-20T23:58:36.209Z,3.67
